Terminal Aerodrome Forecast
Issued by NWS

Home | Current Version | Previous Version | Text Only | Print | Product List | Glossary On
Versions: 1 2 3 4 5 6 7 8 9 10 11 12 13 14 15 16 17 18 19 20
000
FTUS44 KCRP 062300
TAFALI
TAF
KALI 062338Z 0700/0724 VRB03KT P6SM OVC080
     FM071700 09007KT P6SM SCT035 OVC050
     FM072200 10012KT P6SM BKN030 OVC040=

USA.gov is the U.S. government's official web portal to all federal, state and local government web resources and services.